sensor_id;sensor_type;location;lat;lon;timestamp;P1;durP1;ratioP1;P2;durP2;ratioP2
56517;SDS011;42419;48.760;2.322;2023-06-01T00:00:46;3.50;;;3.20;;
56517;SDS011;42419;48.760;2.322;2023-06-01T00:03:11;3.90;;;3.00;;
56517;SDS011;42419;48.760;2.322;2023-06-01T00:05:37;3.50;;;3.20;;
56517;SDS011;42419;48.760;2.322;2023-06-01T00:08:02;3.37;;;2.63;;
56517;SDS011;42419;48.760;2.322;2023-06-01T00:10:29;4.33;;;3.33;;
56517;SDS011;42419;48.760;2.322;2023-06-01T00:12:54;2.73;;;2.53;;
56517;SDS011;42419;48.760;2.322;2023-06-01T00:15:20;3.80;;;2.90;;
56517;SDS011;42419;48.760;2.322;2023-06-01T00:17:45;6.43;;;2.60;;
56517;SDS011;42419;48.760;2.322;2023-06-01T00:20:11;3.03;;;2.60;;
56517;SDS011;42419;48.760;2.322;2023-06-01T00:22:37;3.93;;;3.20;;
56517;SDS011;42419;48.760;2.322;2023-06-01T00:25:06;3.40;;;3.10;;
56517;SDS011;42419;48.760;2.322;2023-06-01T00:27:32;3.37;;;3.07;;
56517;SDS011;42419;48.760;2.322;2023-06-01T00:29:57;5.00;;;3.23;;
56517;SDS011;42419;48.760;2.322;2023-06-01T00:32:22;3.60;;;3.07;;
56517;SDS011;42419;48.760;2.322;2023-06-01T00:34:48;3.80;;;2.70;;
56517;SDS011;42419;48.760;2.322;2023-06-01T00:37:13;4.33;;;3.13;;
56517;SDS011;42419;48.760;2.322;2023-06-01T00:39:38;3.13;;;2.83;;
56517;SDS011;42419;48.760;2.322;2023-06-01T00:42:04;3.60;;;2.93;;
56517;SDS011;42419;48.760;2.322;2023-06-01T00:44:30;4.70;;;3.10;;
56517;SDS011;42419;48.760;2.322;2023-06-01T00:46:55;4.20;;;2.90;;
56517;SDS011;42419;48.760;2.322;2023-06-01T00:49:21;5.33;;;3.37;;
56517;SDS011;42419;48.760;2.322;2023-06-01T00:51:47;3.30;;;2.60;;
56517;SDS011;42419;48.760;2.322;2023-06-01T00:54:12;4.67;;;3.50;;
56517;SDS011;42419;48.760;2.322;2023-06-01T00:56:37;4.30;;;3.47;;
56517;SDS011;42419;48.760;2.322;2023-06-01T00:59:03;3.30;;;3.00;;
56517;SDS011;42419;48.760;2.322;2023-06-01T01:01:29;4.90;;;3.70;;
56517;SDS011;42419;48.760;2.322;2023-06-01T01:03:54;5.20;;;3.20;;
56517;SDS011;42419;48.760;2.322;2023-06-01T01:06:25;3.80;;;2.93;;
56517;SDS011;42419;48.760;2.322;2023-06-01T01:11:32;3.80;;;3.10;;
56517;SDS011;42419;48.760;2.322;2023-06-01T01:17:22;3.97;;;3.20;;
56517;SDS011;42419;48.760;2.322;2023-06-01T01:22:47;3.33;;;2.80;;
56517;SDS011;42419;48.760;2.322;2023-06-01T01:25:25;2.60;;;2.40;;
56517;SDS011;42419;48.760;2.322;2023-06-01T01:31:01;5.37;;;3.07;;
56517;SDS011;42419;48.760;2.322;2023-06-01T01:33:28;4.23;;;2.93;;
56517;SDS011;42419;48.760;2.322;2023-06-01T01:35:54;5.90;;;3.40;;
56517;SDS011;42419;48.760;2.322;2023-06-01T01:38:21;4.13;;;3.10;;
56517;SDS011;42419;48.760;2.322;2023-06-01T01:40:46;5.63;;;3.30;;
56517;SDS011;42419;48.760;2.322;2023-06-01T01:43:12;3.33;;;3.03;;
56517;SDS011;42419;48.760;2.322;2023-06-01T01:45:37;5.20;;;3.60;;
56517;SDS011;42419;48.760;2.322;2023-06-01T01:48:10;4.30;;;3.00;;
56517;SDS011;42419;48.760;2.322;2023-06-01T01:50:46;5.60;;;3.40;;
56517;SDS011;42419;48.760;2.322;2023-06-01T01:53:16;4.23;;;3.50;;
56517;SDS011;42419;48.760;2.322;2023-06-01T01:55:45;3.97;;;3.00;;
56517;SDS011;42419;48.760;2.322;2023-06-01T01:58:13;4.63;;;3.57;;
56517;SDS011;42419;48.760;2.322;2023-06-01T02:00:40;4.43;;;2.80;;
56517;SDS011;42419;48.760;2.322;2023-06-01T02:03:17;4.03;;;3.23;;
56517;SDS011;42419;48.760;2.322;2023-06-01T02:05:43;5.00;;;3.63;;
56517;SDS011;42419;48.760;2.322;2023-06-01T02:08:09;3.87;;;3.47;;
56517;SDS011;42419;48.760;2.322;2023-06-01T02:10:34;3.83;;;3.47;;
56517;SDS011;42419;48.760;2.322;2023-06-01T02:13:00;4.90;;;3.60;;
56517;SDS011;42419;48.760;2.322;2023-06-01T02:15:25;5.70;;;4.20;;
56517;SDS011;42419;48.760;2.322;2023-06-01T02:17:51;4.07;;;3.60;;
56517;SDS011;42419;48.760;2.322;2023-06-01T02:20:16;6.90;;;3.60;;
56517;SDS011;42419;48.760;2.322;2023-06-01T02:22:42;5.40;;;3.83;;
56517;SDS011;42419;48.760;2.322;2023-06-01T02:25:08;4.30;;;3.63;;
56517;SDS011;42419;48.760;2.322;2023-06-01T02:27:33;3.73;;;3.30;;
56517;SDS011;42419;48.760;2.322;2023-06-01T02:29:59;5.63;;;3.87;;
56517;SDS011;42419;48.760;2.322;2023-06-01T02:32:24;5.47;;;4.00;;
56517;SDS011;42419;48.760;2.322;2023-06-01T02:34:50;6.27;;;3.70;;
56517;SDS011;42419;48.760;2.322;2023-06-01T02:37:16;6.43;;;4.10;;
56517;SDS011;42419;48.760;2.322;2023-06-01T02:39:41;5.13;;;3.77;;
56517;SDS011;42419;48.760;2.322;2023-06-01T02:42:07;4.70;;;3.90;;
56517;SDS011;42419;48.760;2.322;2023-06-01T02:44:32;6.53;;;3.83;;
56517;SDS011;42419;48.760;2.322;2023-06-01T02:47:00;8.73;;;5.07;;
56517;SDS011;42419;48.760;2.322;2023-06-01T02:49:26;4.13;;;3.73;;
56517;SDS011;42419;48.760;2.322;2023-06-01T02:51:51;5.27;;;4.63;;
56517;SDS011;42419;48.760;2.322;2023-06-01T02:54:16;8.97;;;5.10;;
56517;SDS011;42419;48.760;2.322;2023-06-01T02:56:42;6.57;;;4.60;;
56517;SDS011;42419;48.760;2.322;2023-06-01T02:59:07;7.47;;;4.30;;
56517;SDS011;42419;48.760;2.322;2023-06-01T03:01:33;6.67;;;4.20;;
56517;SDS011;42419;48.760;2.322;2023-06-01T03:04:01;5.30;;;4.40;;
56517;SDS011;42419;48.760;2.322;2023-06-01T03:06:28;6.90;;;4.90;;
56517;SDS011;42419;48.760;2.322;2023-06-01T03:08:56;6.33;;;4.63;;
56517;SDS011;42419;48.760;2.322;2023-06-01T03:11:22;8.37;;;4.97;;
56517;SDS011;42419;48.760;2.322;2023-06-01T03:13:47;5.77;;;4.43;;
56517;SDS011;42419;48.760;2.322;2023-06-01T03:16:13;5.87;;;4.80;;
56517;SDS011;42419;48.760;2.322;2023-06-01T03:18:38;7.77;;;6.00;;
56517;SDS011;42419;48.760;2.322;2023-06-01T03:21:03;7.83;;;5.50;;
56517;SDS011;42419;48.760;2.322;2023-06-01T03:23:29;6.10;;;5.50;;
56517;SDS011;42419;48.760;2.322;2023-06-01T03:25:55;10.17;;;6.27;;
56517;SDS011;42419;48.760;2.322;2023-06-01T03:28:20;8.27;;;5.97;;
56517;SDS011;42419;48.760;2.322;2023-06-01T03:30:46;11.53;;;7.50;;
56517;SDS011;42419;48.760;2.322;2023-06-01T03:33:11;8.30;;;6.20;;
56517;SDS011;42419;48.760;2.322;2023-06-01T03:35:37;8.70;;;5.80;;
56517;SDS011;42419;48.760;2.322;2023-06-01T03:38:02;9.20;;;6.60;;
56517;SDS011;42419;48.760;2.322;2023-06-01T03:40:27;8.70;;;5.63;;
56517;SDS011;42419;48.760;2.322;2023-06-01T03:42:53;9.57;;;5.70;;
56517;SDS011;42419;48.760;2.322;2023-06-01T03:45:18;7.77;;;5.57;;
56517;SDS011;42419;48.760;2.322;2023-06-01T03:47:44;6.63;;;5.77;;
56517;SDS011;42419;48.760;2.322;2023-06-01T03:50:09;5.90;;;5.30;;
56517;SDS011;42419;48.760;2.322;2023-06-01T03:52:35;8.30;;;6.07;;
56517;SDS011;42419;48.760;2.322;2023-06-01T03:55:02;8.30;;;5.70;;
56517;SDS011;42419;48.760;2.322;2023-06-01T03:57:35;7.27;;;6.07;;
56517;SDS011;42419;48.760;2.322;2023-06-01T04:00:05;9.40;;;6.00;;
56517;SDS011;42419;48.760;2.322;2023-06-01T04:02:47;6.20;;;5.43;;
56517;SDS011;42419;48.760;2.322;2023-06-01T04:05:14;7.03;;;6.00;;
56517;SDS011;42419;48.760;2.322;2023-06-01T04:07:42;9.60;;;6.37;;
56517;SDS011;42419;48.760;2.322;2023-06-01T04:10:09;7.63;;;6.20;;
56517;SDS011;42419;48.760;2.322;2023-06-01T04:12:37;6.80;;;5.30;;
56517;SDS011;42419;48.760;2.322;2023-06-01T04:15:03;8.97;;;6.43;;
56517;SDS011;42419;48.760;2.322;2023-06-01T04:17:28;7.47;;;6.23;;
56517;SDS011;42419;48.760;2.322;2023-06-01T04:19:53;8.60;;;6.90;;
56517;SDS011;42419;48.760;2.322;2023-06-01T04:22:19;8.77;;;6.53;;
56517;SDS011;42419;48.760;2.322;2023-06-01T04:24:44;8.80;;;5.90;;
56517;SDS011;42419;48.760;2.322;2023-06-01T04:27:09;6.77;;;6.07;;
56517;SDS011;42419;48.760;2.322;2023-06-01T04:29:35;9.57;;;7.10;;
56517;SDS011;42419;48.760;2.322;2023-06-01T04:32:04;7.00;;;6.03;;
56517;SDS011;42419;48.760;2.322;2023-06-01T04:34:33;7.40;;;6.37;;
56517;SDS011;42419;48.760;2.322;2023-06-01T04:36:58;6.17;;;5.57;;
56517;SDS011;42419;48.760;2.322;2023-06-01T04:39:24;7.67;;;5.87;;
56517;SDS011;42419;48.760;2.322;2023-06-01T04:41:53;8.37;;;6.53;;
56517;SDS011;42419;48.760;2.322;2023-06-01T04:44:20;8.97;;;6.87;;
56517;SDS011;42419;48.760;2.322;2023-06-01T04:46:46;9.10;;;6.70;;
56517;SDS011;42419;48.760;2.322;2023-06-01T04:49:12;8.03;;;6.80;;
56517;SDS011;42419;48.760;2.322;2023-06-01T04:51:40;9.10;;;7.63;;
56517;SDS011;42419;48.760;2.322;2023-06-01T04:54:06;8.23;;;6.57;;
56517;SDS011;42419;48.760;2.322;2023-06-01T04:56:32;6.50;;;5.90;;
56517;SDS011;42419;48.760;2.322;2023-06-01T04:58:57;6.97;;;6.27;;
56517;SDS011;42419;48.760;2.322;2023-06-01T05:01:23;10.10;;;7.27;;
56517;SDS011;42419;48.760;2.322;2023-06-01T05:03:50;9.90;;;7.30;;
56517;SDS011;42419;48.760;2.322;2023-06-01T05:06:19;9.80;;;7.53;;
56517;SDS011;42419;48.760;2.322;2023-06-01T05:08:45;7.90;;;7.20;;
56517;SDS011;42419;48.760;2.322;2023-06-01T05:11:11;9.87;;;7.67;;
56517;SDS011;42419;48.760;2.322;2023-06-01T05:13:39;8.47;;;7.57;;
56517;SDS011;42419;48.760;2.322;2023-06-01T05:16:05;8.63;;;7.73;;
56517;SDS011;42419;48.760;2.322;2023-06-01T05:18:33;7.90;;;7.10;;
56517;SDS011;42419;48.760;2.322;2023-06-01T05:20:58;11.53;;;8.20;;
56517;SDS011;42419;48.760;2.322;2023-06-01T05:23:25;7.37;;;6.50;;
56517;SDS011;42419;48.760;2.322;2023-06-01T05:25:51;11.37;;;7.73;;
56517;SDS011;42419;48.760;2.322;2023-06-01T05:28:16;8.70;;;7.90;;
56517;SDS011;42419;48.760;2.322;2023-06-01T05:30:42;9.27;;;7.33;;
56517;SDS011;42419;48.760;2.322;2023-06-01T05:33:07;8.40;;;7.50;;
56517;SDS011;42419;48.760;2.322;2023-06-01T05:35:33;8.40;;;7.30;;
56517;SDS011;42419;48.760;2.322;2023-06-01T05:37:59;9.40;;;7.77;;
56517;SDS011;42419;48.760;2.322;2023-06-01T05:40:24;11.40;;;8.63;;
56517;SDS011;42419;48.760;2.322;2023-06-01T05:42:51;7.90;;;7.07;;
56517;SDS011;42419;48.760;2.322;2023-06-01T05:45:16;7.70;;;7.00;;
56517;SDS011;42419;48.760;2.322;2023-06-01T05:47:42;8.33;;;7.10;;
56517;SDS011;42419;48.760;2.322;2023-06-01T05:50:07;12.03;;;8.50;;
56517;SDS011;42419;48.760;2.322;2023-06-01T05:52:33;9.40;;;7.87;;
56517;SDS011;42419;48.760;2.322;2023-06-01T05:54:58;10.83;;;8.40;;
56517;SDS011;42419;48.760;2.322;2023-06-01T05:57:23;10.40;;;8.33;;
56517;SDS011;42419;48.760;2.322;2023-06-01T05:59:49;8.30;;;7.17;;
56517;SDS011;42419;48.760;2.322;2023-06-01T06:02:14;10.53;;;7.30;;
56517;SDS011;42419;48.760;2.322;2023-06-01T06:04:40;10.00;;;8.10;;
56517;SDS011;42419;48.760;2.322;2023-06-01T06:07:06;10.60;;;9.10;;
56517;SDS011;42419;48.760;2.322;2023-06-01T06:09:31;10.27;;;8.30;;
56517;SDS011;42419;48.760;2.322;2023-06-01T06:11:56;10.63;;;7.60;;
56517;SDS011;42419;48.760;2.322;2023-06-01T06:14:22;8.70;;;7.20;;
56517;SDS011;42419;48.760;2.322;2023-06-01T06:16:47;9.67;;;7.10;;
56517;SDS011;42419;48.760;2.322;2023-06-01T06:19:13;9.70;;;8.10;;
56517;SDS011;42419;48.760;2.322;2023-06-01T06:21:40;7.90;;;6.80;;
56517;SDS011;42419;48.760;2.322;2023-06-01T06:24:06;7.53;;;6.77;;
56517;SDS011;42419;48.760;2.322;2023-06-01T06:26:31;8.90;;;7.13;;
56517;SDS011;42419;48.760;2.322;2023-06-01T06:28:57;9.30;;;7.23;;
56517;SDS011;42419;48.760;2.322;2023-06-01T06:31:22;8.77;;;7.73;;
56517;SDS011;42419;48.760;2.322;2023-06-01T06:33:48;7.97;;;6.90;;
56517;SDS011;42419;48.760;2.322;2023-06-01T06:36:14;9.53;;;7.77;;
56517;SDS011;42419;48.760;2.322;2023-06-01T06:38:40;9.93;;;8.10;;
56517;SDS011;42419;48.760;2.322;2023-06-01T06:41:05;8.50;;;7.10;;
56517;SDS011;42419;48.760;2.322;2023-06-01T06:43:30;8.77;;;7.87;;
56517;SDS011;42419;48.760;2.322;2023-06-01T06:45:55;13.67;;;8.40;;
56517;SDS011;42419;48.760;2.322;2023-06-01T06:48:21;8.37;;;7.47;;
56517;SDS011;42419;48.760;2.322;2023-06-01T06:50:46;16.70;;;8.93;;
56517;SDS011;42419;48.760;2.322;2023-06-01T06:53:12;9.33;;;8.07;;
56517;SDS011;42419;48.760;2.322;2023-06-01T06:55:37;9.27;;;7.40;;
56517;SDS011;42419;48.760;2.322;2023-06-01T06:58:02;10.83;;;8.00;;
56517;SDS011;42419;48.760;2.322;2023-06-01T07:00:27;9.07;;;8.17;;
56517;SDS011;42419;48.760;2.322;2023-06-01T07:02:53;8.80;;;7.77;;
56517;SDS011;42419;48.760;2.322;2023-06-01T07:05:20;8.70;;;7.80;;
56517;SDS011;42419;48.760;2.322;2023-06-01T07:07:45;7.63;;;6.83;;
56517;SDS011;42419;48.760;2.322;2023-06-01T07:10:11;8.47;;;7.60;;
56517;SDS011;42419;48.760;2.322;2023-06-01T07:12:37;9.00;;;8.10;;
56517;SDS011;42419;48.760;2.322;2023-06-01T07:15:03;8.20;;;7.40;;
56517;SDS011;42419;48.760;2.322;2023-06-01T07:17:29;11.60;;;7.57;;
56517;SDS011;42419;48.760;2.322;2023-06-01T07:19:55;11.73;;;7.80;;
56517;SDS011;42419;48.760;2.322;2023-06-01T07:22:20;10.53;;;7.90;;
56517;SDS011;42419;48.760;2.322;2023-06-01T07:24:46;8.93;;;7.40;;
56517;SDS011;42419;48.760;2.322;2023-06-01T07:27:16;10.23;;;8.03;;
56517;SDS011;42419;48.760;2.322;2023-06-01T07:29:42;8.93;;;7.90;;
56517;SDS011;42419;48.760;2.322;2023-06-01T07:32:09;8.17;;;7.30;;
56517;SDS011;42419;48.760;2.322;2023-06-01T07:34:35;7.70;;;6.90;;
56517;SDS011;42419;48.760;2.322;2023-06-01T07:37:03;8.87;;;7.30;;
56517;SDS011;42419;48.760;2.322;2023-06-01T07:39:29;11.57;;;7.60;;
56517;SDS011;42419;48.760;2.322;2023-06-01T07:41:55;11.60;;;7.40;;
56517;SDS011;42419;48.760;2.322;2023-06-01T07:44:21;11.57;;;7.90;;
56517;SDS011;42419;48.760;2.322;2023-06-01T07:46:46;9.53;;;7.77;;
56517;SDS011;42419;48.760;2.322;2023-06-01T07:49:12;9.97;;;7.73;;
56517;SDS011;42419;48.760;2.322;2023-06-01T07:51:39;12.17;;;7.70;;
56517;SDS011;42419;48.760;2.322;2023-06-01T07:54:05;10.20;;;6.93;;
56517;SDS011;42419;48.760;2.322;2023-06-01T07:56:31;10.27;;;7.40;;
56517;SDS011;42419;48.760;2.322;2023-06-01T07:58:57;14.20;;;7.07;;
56517;SDS011;42419;48.760;2.322;2023-06-01T08:01:25;8.20;;;7.40;;
56517;SDS011;42419;48.760;2.322;2023-06-01T08:03:51;8.77;;;6.40;;
56517;SDS011;42419;48.760;2.322;2023-06-01T08:06:16;8.90;;;7.43;;
56517;SDS011;42419;48.760;2.322;2023-06-01T08:08:42;10.00;;;7.30;;
56517;SDS011;42419;48.760;2.322;2023-06-01T08:11:07;8.07;;;6.80;;
56517;SDS011;42419;48.760;2.322;2023-06-01T08:13:34;9.70;;;7.70;;
56517;SDS011;42419;48.760;2.322;2023-06-01T08:16:01;10.03;;;6.90;;
56517;SDS011;42419;48.760;2.322;2023-06-01T08:18:27;10.50;;;8.10;;
56517;SDS011;42419;48.760;2.322;2023-06-01T08:20:56;8.80;;;7.17;;
56517;SDS011;42419;48.760;2.322;2023-06-01T08:23:22;8.63;;;7.37;;
56517;SDS011;42419;48.760;2.322;2023-06-01T08:25:47;8.13;;;6.83;;
56517;SDS011;42419;48.760;2.322;2023-06-01T08:28:13;8.93;;;7.07;;
56517;SDS011;42419;48.760;2.322;2023-06-01T08:30:38;8.43;;;6.67;;
56517;SDS011;42419;48.760;2.322;2023-06-01T08:33:04;8.47;;;6.67;;
56517;SDS011;42419;48.760;2.322;2023-06-01T08:35:30;8.97;;;7.50;;
56517;SDS011;42419;48.760;2.322;2023-06-01T08:38:01;9.90;;;7.40;;
56517;SDS011;42419;48.760;2.322;2023-06-01T08:40:27;8.13;;;6.90;;
56517;SDS011;42419;48.760;2.322;2023-06-01T08:42:56;9.73;;;6.90;;
56517;SDS011;42419;48.760;2.322;2023-06-01T08:45:24;7.47;;;6.67;;
56517;SDS011;42419;48.760;2.322;2023-06-01T08:47:52;9.30;;;6.80;;
56517;SDS011;42419;48.760;2.322;2023-06-01T08:50:19;11.30;;;7.10;;
56517;SDS011;42419;48.760;2.322;2023-06-01T08:52:45;8.83;;;7.30;;
56517;SDS011;42419;48.760;2.322;2023-06-01T08:55:13;13.63;;;6.70;;
56517;SDS011;42419;48.760;2.322;2023-06-01T08:57:40;9.00;;;6.80;;
56517;SDS011;42419;48.760;2.322;2023-06-01T09:00:08;9.20;;;7.50;;
56517;SDS011;42419;48.760;2.322;2023-06-01T09:02:39;10.63;;;8.03;;
56517;SDS011;42419;48.760;2.322;2023-06-01T09:05:05;8.40;;;7.33;;
56517;SDS011;42419;48.760;2.322;2023-06-01T09:07:31;9.40;;;7.03;;
56517;SDS011;42419;48.760;2.322;2023-06-01T09:09:57;7.90;;;7.10;;
56517;SDS011;42419;48.760;2.322;2023-06-01T09:12:23;9.40;;;7.23;;
56517;SDS011;42419;48.760;2.322;2023-06-01T09:15:37;7.93;;;7.10;;
56517;SDS011;42419;48.760;2.322;2023-06-01T09:17:46;10.10;;;7.70;;
56517;SDS011;42419;48.760;2.322;2023-06-01T09:20:24;9.30;;;6.90;;
56517;SDS011;42419;48.760;2.322;2023-06-01T09:22:54;8.20;;;6.77;;
56517;SDS011;42419;48.760;2.322;2023-06-01T09:25:30;10.03;;;7.17;;
56517;SDS011;42419;48.760;2.322;2023-06-01T09:27:57;8.90;;;6.40;;
56517;SDS011;42419;48.760;2.322;2023-06-01T09:30:24;8.20;;;6.90;;
56517;SDS011;42419;48.760;2.322;2023-06-01T09:35:42;7.67;;;6.87;;
56517;SDS011;42419;48.760;2.322;2023-06-01T09:38:09;9.33;;;6.77;;
56517;SDS011;42419;48.760;2.322;2023-06-01T09:40:36;9.40;;;6.60;;
56517;SDS011;42419;48.760;2.322;2023-06-01T09:43:02;8.00;;;6.77;;
56517;SDS011;42419;48.760;2.322;2023-06-01T09:45:29;8.30;;;6.70;;
56517;SDS011;42419;48.760;2.322;2023-06-01T09:48:14;11.33;;;7.40;;
56517;SDS011;42419;48.760;2.322;2023-06-01T09:50:42;8.30;;;6.63;;
56517;SDS011;42419;48.760;2.322;2023-06-01T09:53:08;7.13;;;5.67;;
56517;SDS011;42419;48.760;2.322;2023-06-01T09:55:34;7.37;;;6.60;;
56517;SDS011;42419;48.760;2.322;2023-06-01T10:00:46;9.33;;;6.00;;
56517;SDS011;42419;48.760;2.322;2023-06-01T10:03:19;8.27;;;6.77;;
56517;SDS011;42419;48.760;2.322;2023-06-01T10:05:47;7.50;;;6.10;;
56517;SDS011;42419;48.760;2.322;2023-06-01T10:08:19;10.03;;;6.87;;
56517;SDS011;42419;48.760;2.322;2023-06-01T10:10:47;7.80;;;6.10;;
56517;SDS011;42419;48.760;2.322;2023-06-01T10:13:13;6.87;;;5.10;;
56517;SDS011;42419;48.760;2.322;2023-06-01T10:15:39;8.20;;;6.23;;
56517;SDS011;42419;48.760;2.322;2023-06-01T10:18:07;8.77;;;6.30;;
56517;SDS011;42419;48.760;2.322;2023-06-01T10:20:33;6.40;;;5.70;;
56517;SDS011;42419;48.760;2.322;2023-06-01T10:23:02;7.77;;;5.70;;
56517;SDS011;42419;48.760;2.322;2023-06-01T10:25:38;7.40;;;5.97;;
56517;SDS011;42419;48.760;2.322;2023-06-01T10:28:08;8.20;;;6.70;;
56517;SDS011;42419;48.760;2.322;2023-06-01T10:30:36;6.83;;;5.30;;
56517;SDS011;42419;48.760;2.322;2023-06-01T10:33:01;7.00;;;5.80;;
56517;SDS011;42419;48.760;2.322;2023-06-01T10:40:41;8.40;;;6.50;;
56517;SDS011;42419;48.760;2.322;2023-06-01T10:43:39;7.40;;;6.70;;
56517;SDS011;42419;48.760;2.322;2023-06-01T10:46:50;5.97;;;5.47;;
56517;SDS011;42419;48.760;2.322;2023-06-01T10:49:05;10.43;;;6.83;;
56517;SDS011;42419;48.760;2.322;2023-06-01T10:51:30;7.00;;;6.30;;
56517;SDS011;42419;48.760;2.322;2023-06-01T10:57:04;6.30;;;5.70;;
56517;SDS011;42419;48.760;2.322;2023-06-01T11:00:04;7.30;;;6.40;;
56517;SDS011;42419;48.760;2.322;2023-06-01T11:07:59;8.00;;;6.40;;
56517;SDS011;42419;48.760;2.322;2023-06-01T11:13:24;6.80;;;5.90;;
56517;SDS011;42419;48.760;2.322;2023-06-01T11:23:48;6.63;;;5.70;;
56517;SDS011;42419;48.760;2.322;2023-06-01T11:26:15;6.63;;;5.90;;
56517;SDS011;42419;48.760;2.322;2023-06-01T11:28:42;5.83;;;5.33;;
56517;SDS011;42419;48.760;2.322;2023-06-01T11:31:09;8.00;;;6.23;;
56517;SDS011;42419;48.760;2.322;2023-06-01T11:33:37;6.90;;;5.73;;
56517;SDS011;42419;48.760;2.322;2023-06-01T11:36:05;7.33;;;6.53;;
56517;SDS011;42419;48.760;2.322;2023-06-01T11:38:35;7.03;;;5.93;;
56517;SDS011;42419;48.760;2.322;2023-06-01T11:41:03;7.10;;;5.47;;
56517;SDS011;42419;48.760;2.322;2023-06-01T11:43:32;6.47;;;5.87;;
56517;SDS011;42419;48.760;2.322;2023-06-01T11:46:05;6.73;;;5.30;;
56517;SDS011;42419;48.760;2.322;2023-06-01T11:48:31;8.80;;;5.77;;
56517;SDS011;42419;48.760;2.322;2023-06-01T11:50:59;6.60;;;5.50;;
56517;SDS011;42419;48.760;2.322;2023-06-01T11:53:26;6.40;;;4.73;;
56517;SDS011;42419;48.760;2.322;2023-06-01T11:55:53;5.70;;;5.20;;
56517;SDS011;42419;48.760;2.322;2023-06-01T11:58:23;7.07;;;4.90;;
56517;SDS011;42419;48.760;2.322;2023-06-01T12:00:58;6.63;;;5.27;;
56517;SDS011;42419;48.760;2.322;2023-06-01T12:03:27;5.70;;;4.80;;
56517;SDS011;42419;48.760;2.322;2023-06-01T12:05:52;7.73;;;5.20;;
56517;SDS011;42419;48.760;2.322;2023-06-01T12:08:18;7.27;;;5.53;;
56517;SDS011;42419;48.760;2.322;2023-06-01T12:10:46;6.20;;;5.57;;
56517;SDS011;42419;48.760;2.322;2023-06-01T12:13:15;6.70;;;5.87;;
56517;SDS011;42419;48.760;2.322;2023-06-01T12:15:42;6.60;;;5.67;;
56517;SDS011;42419;48.760;2.322;2023-06-01T12:18:08;4.63;;;4.23;;
56517;SDS011;42419;48.760;2.322;2023-06-01T12:23:02;4.63;;;4.00;;
56517;SDS011;42419;48.760;2.322;2023-06-01T12:25:50;6.30;;;4.90;;
56517;SDS011;42419;48.760;2.322;2023-06-01T12:28:24;6.10;;;4.17;;
56517;SDS011;42419;48.760;2.322;2023-06-01T12:31:10;6.80;;;4.50;;
56517;SDS011;42419;48.760;2.322;2023-06-01T12:33:39;5.60;;;4.80;;
56517;SDS011;42419;48.760;2.322;2023-06-01T12:36:33;4.73;;;4.33;;
56517;SDS011;42419;48.760;2.322;2023-06-01T12:39:00;6.53;;;4.30;;
56517;SDS011;42419;48.760;2.322;2023-06-01T12:41:28;4.47;;;4.07;;
56517;SDS011;42419;48.760;2.322;2023-06-01T12:43:54;6.10;;;4.83;;
56517;SDS011;42419;48.760;2.322;2023-06-01T12:46:21;5.50;;;4.37;;
56517;SDS011;42419;48.760;2.322;2023-06-01T12:48:52;4.80;;;4.30;;
56517;SDS011;42419;48.760;2.322;2023-06-01T12:51:18;4.40;;;4.00;;
56517;SDS011;42419;48.760;2.322;2023-06-01T12:53:45;8.93;;;4.73;;
56517;SDS011;42419;48.760;2.322;2023-06-01T12:56:10;5.33;;;4.37;;
56517;SDS011;42419;48.760;2.322;2023-06-01T12:58:36;4.80;;;4.30;;
56517;SDS011;42419;48.760;2.322;2023-06-01T13:01:02;5.23;;;4.33;;
56517;SDS011;42419;48.760;2.322;2023-06-01T13:03:28;5.30;;;3.90;;
56517;SDS011;42419;48.760;2.322;2023-06-01T13:05:54;6.10;;;4.80;;
56517;SDS011;42419;48.760;2.322;2023-06-01T13:08:22;4.07;;;3.67;;
56517;SDS011;42419;48.760;2.322;2023-06-01T13:10:48;5.50;;;4.33;;
56517;SDS011;42419;48.760;2.322;2023-06-01T13:13:15;4.70;;;4.30;;
56517;SDS011;42419;48.760;2.322;2023-06-01T13:15:41;6.33;;;4.50;;
56517;SDS011;42419;48.760;2.322;2023-06-01T13:18:08;6.20;;;4.60;;
56517;SDS011;42419;48.760;2.322;2023-06-01T13:20:34;4.30;;;3.90;;
56517;SDS011;42419;48.760;2.322;2023-06-01T13:22:59;6.87;;;4.10;;
56517;SDS011;42419;48.760;2.322;2023-06-01T13:25:25;5.40;;;3.67;;
56517;SDS011;42419;48.760;2.322;2023-06-01T13:27:50;7.13;;;4.30;;
56517;SDS011;42419;48.760;2.322;2023-06-01T13:30:16;7.20;;;3.80;;
56517;SDS011;42419;48.760;2.322;2023-06-01T13:32:42;4.30;;;3.90;;
56517;SDS011;42419;48.760;2.322;2023-06-01T13:35:08;5.00;;;3.90;;
56517;SDS011;42419;48.760;2.322;2023-06-01T13:37:33;4.63;;;4.10;;
56517;SDS011;42419;48.760;2.322;2023-06-01T13:40:01;4.73;;;4.33;;
56517;SDS011;42419;48.760;2.322;2023-06-01T13:42:27;4.37;;;3.83;;
56517;SDS011;42419;48.760;2.322;2023-06-01T13:44:53;5.20;;;4.50;;
56517;SDS011;42419;48.760;2.322;2023-06-01T13:47:19;4.33;;;3.60;;
56517;SDS011;42419;48.760;2.322;2023-06-01T13:49:45;4.20;;;3.80;;
56517;SDS011;42419;48.760;2.322;2023-06-01T13:52:11;4.93;;;4.20;;
56517;SDS011;42419;48.760;2.322;2023-06-01T13:54:37;4.80;;;3.70;;
56517;SDS011;42419;48.760;2.322;2023-06-01T13:57:02;5.30;;;3.43;;
56517;SDS011;42419;48.760;2.322;2023-06-01T13:59:28;4.37;;;3.97;;
56517;SDS011;42419;48.760;2.322;2023-06-01T14:01:56;4.67;;;4.10;;
56517;SDS011;42419;48.760;2.322;2023-06-01T14:04:21;4.57;;;4.17;;
56517;SDS011;42419;48.760;2.322;2023-06-01T14:06:47;3.93;;;3.57;;
56517;SDS011;42419;48.760;2.322;2023-06-01T14:09:15;5.43;;;4.40;;
56517;SDS011;42419;48.760;2.322;2023-06-01T14:11:41;4.40;;;4.00;;
56517;SDS011;42419;48.760;2.322;2023-06-01T14:14:09;4.53;;;3.70;;
56517;SDS011;42419;48.760;2.322;2023-06-01T14:16:35;4.93;;;3.83;;
56517;SDS011;42419;48.760;2.322;2023-06-01T14:19:00;4.20;;;3.57;;
56517;SDS011;42419;48.760;2.322;2023-06-01T14:21:25;4.37;;;3.97;;
56517;SDS011;42419;48.760;2.322;2023-06-01T14:23:51;4.33;;;3.93;;
56517;SDS011;42419;48.760;2.322;2023-06-01T14:26:17;4.20;;;3.80;;
56517;SDS011;42419;48.760;2.322;2023-06-01T14:28:42;4.27;;;3.77;;
56517;SDS011;42419;48.760;2.322;2023-06-01T14:31:07;4.20;;;3.90;;
56517;SDS011;42419;48.760;2.322;2023-06-01T14:33:33;5.07;;;3.30;;
56517;SDS011;42419;48.760;2.322;2023-06-01T14:35:59;4.27;;;3.97;;
56517;SDS011;42419;48.760;2.322;2023-06-01T14:38:24;4.80;;;4.40;;
56517;SDS011;42419;48.760;2.322;2023-06-01T14:40:50;4.10;;;3.80;;
56517;SDS011;42419;48.760;2.322;2023-06-01T14:43:15;4.30;;;3.80;;
56517;SDS011;42419;48.760;2.322;2023-06-01T14:45:40;4.70;;;3.53;;
56517;SDS011;42419;48.760;2.322;2023-06-01T14:48:09;3.73;;;3.43;;
56517;SDS011;42419;48.760;2.322;2023-06-01T14:50:34;4.13;;;3.83;;
56517;SDS011;42419;48.760;2.322;2023-06-01T14:53:00;4.30;;;3.70;;
56517;SDS011;42419;48.760;2.322;2023-06-01T14:55:26;4.37;;;3.73;;
56517;SDS011;42419;48.760;2.322;2023-06-01T14:57:52;4.83;;;3.50;;
56517;SDS011;42419;48.760;2.322;2023-06-01T15:00:17;3.60;;;3.30;;
56517;SDS011;42419;48.760;2.322;2023-06-01T15:02:43;8.33;;;3.77;;
56517;SDS011;42419;48.760;2.322;2023-06-01T15:05:09;4.67;;;3.60;;
56517;SDS011;42419;48.760;2.322;2023-06-01T15:07:34;3.60;;;3.30;;
56517;SDS011;42419;48.760;2.322;2023-06-01T15:10:05;3.60;;;3.30;;
56517;SDS011;42419;48.760;2.322;2023-06-01T15:12:31;4.10;;;3.70;;
56517;SDS011;42419;48.760;2.322;2023-06-01T15:14:57;3.77;;;3.33;;
56517;SDS011;42419;48.760;2.322;2023-06-01T15:17:23;4.30;;;3.90;;
56517;SDS011;42419;48.760;2.322;2023-06-01T15:19:48;3.83;;;3.37;;
56517;SDS011;42419;48.760;2.322;2023-06-01T15:22:14;3.90;;;3.30;;
56517;SDS011;42419;48.760;2.322;2023-06-01T15:24:39;4.10;;;3.70;;
56517;SDS011;42419;48.760;2.322;2023-06-01T15:27:06;5.40;;;4.67;;
56517;SDS011;42419;48.760;2.322;2023-06-01T15:29:31;3.77;;;3.40;;